createdAt,value
2022-12-16T00:01:42.544Z,23.25
2022-12-16T00:04:09.484Z,36.08
2022-12-16T00:09:03.242Z,17.35
2022-12-16T00:11:47.525Z,21.25
2022-12-16T00:14:14.437Z,22.13
2022-12-16T00:16:41.388Z,25.17
2022-12-16T00:19:08.241Z,26.85
2022-12-16T00:21:37.987Z,35.00
2022-12-16T00:24:04.941Z,18.33
2022-12-16T00:26:31.860Z,21.58
2022-12-16T00:28:58.705Z,23.67
2022-12-16T00:33:56.442Z,16.70
2022-12-16T00:36:23.340Z,16.12
2022-12-16T00:38:52.486Z,27.30
2022-12-16T00:41:22.426Z,31.17
2022-12-16T00:43:49.245Z,45.80
2022-12-16T00:48:42.959Z,62.28
2022-12-16T00:53:39.557Z,33.65
2022-12-16T00:58:35.408Z,25.52
2022-12-16T01:01:09.286Z,29.48
2022-12-16T01:03:36.939Z,12.35
2022-12-16T01:06:15.579Z,62.40
2022-12-16T01:08:48.895Z,52.38
2022-12-16T01:11:18.197Z,29.05
2022-12-16T01:13:46.397Z,35.53
2022-12-16T01:16:13.417Z,39.15
2022-12-16T01:18:40.328Z,67.10
2022-12-16T01:23:42.630Z,93.00
2022-12-16T01:26:10.925Z,43.97
2022-12-16T01:28:37.759Z,40.12
2022-12-16T01:33:39.726Z,100.75
2022-12-16T01:36:08.095Z,67.53
2022-12-16T01:38:36.156Z,47.92
2022-12-16T01:41:05.535Z,117.40
2022-12-16T01:43:35.996Z,199.43
2022-12-16T01:46:12.185Z,41.40
2022-12-16T01:48:41.785Z,143.52
2022-12-16T01:51:14.738Z,175.77
2022-12-16T01:53:42.821Z,29.60
2022-12-16T01:56:11.071Z,62.28
2022-12-16T01:58:39.033Z,97.60
2022-12-16T02:01:05.969Z,41.28
2022-12-16T02:03:36.770Z,91.57
2022-12-16T02:06:06.224Z,238.55
2022-12-16T02:08:33.235Z,147.05
2022-12-16T02:11:34.008Z,21.87
2022-12-16T02:14:12.751Z,244.93
2022-12-16T02:16:59.971Z,268.52
2022-12-16T02:19:48.383Z,192.60
2022-12-16T02:22:21.297Z,201.12
2022-12-16T02:25:06.872Z,222.68
2022-12-16T02:28:01.652Z,56.72
2022-12-16T02:30:52.142Z,188.62
2022-12-16T02:33:22.488Z,148.98
2022-12-16T02:35:52.073Z,63.92
2022-12-16T02:38:39.778Z,45.85
2022-12-16T02:41:17.364Z,197.73
2022-12-16T02:43:44.158Z,97.75
2022-12-16T02:48:37.792Z,72.82
2022-12-16T02:53:35.679Z,49.00
2022-12-16T02:56:19.457Z,31.52
2022-12-16T02:58:52.653Z,110.63
2022-12-16T03:02:02.365Z,46.42
2022-12-16T03:04:39.265Z,12.95
2022-12-16T03:07:08.272Z,62.92
2022-12-16T03:09:38.642Z,13.62
2022-12-16T03:12:10.015Z,48.83
2022-12-16T03:14:39.835Z,21.60
2022-12-16T03:17:08.536Z,39.80
2022-12-16T03:19:36.676Z,45.25
2022-12-16T03:22:16.099Z,48.78
2022-12-16T03:24:43.277Z,17.73
2022-12-16T03:27:31.315Z,22.02
2022-12-16T03:30:12.714Z,26.80
2022-12-16T03:33:08.845Z,24.37
2022-12-16T03:35:41.081Z,37.85
2022-12-16T03:38:10.832Z,54.22
2022-12-16T03:40:40.223Z,104.47
2022-12-16T03:43:07.672Z,81.50
2022-12-16T03:45:39.448Z,91.20
2022-12-16T03:48:11.217Z,62.60
2022-12-16T03:50:50.364Z,72.70
2022-12-16T03:53:17.213Z,105.95
2022-12-16T03:58:10.692Z,47.35
2022-12-16T04:03:15.172Z,54.72
2022-12-16T04:05:42.170Z,138.68
2022-12-16T04:10:55.278Z,51.60
2022-12-16T04:13:51.333Z,77.25
2022-12-16T04:16:36.989Z,52.30
2022-12-16T04:19:22.769Z,122.03
2022-12-16T04:22:09.080Z,145.10
2022-12-16T04:24:36.341Z,83.47
2022-12-16T04:27:21.656Z,106.12
2022-12-16T04:30:10.321Z,294.60
2022-12-16T04:32:55.727Z,86.05
2022-12-16T04:35:41.341Z,235.82
2022-12-16T04:38:26.829Z,25.88
2022-12-16T04:41:21.191Z,224.20
2022-12-16T04:44:07.010Z,14.23
2022-12-16T04:46:52.736Z,234.98
2022-12-16T04:49:49.062Z,234.90
2022-12-16T04:52:34.684Z,168.23
2022-12-16T04:55:20.314Z,52.03
2022-12-16T04:58:16.689Z,178.87
2022-12-16T05:01:03.833Z,234.95
2022-12-16T05:03:49.593Z,128.18
2022-12-16T05:06:35.769Z,345.70
2022-12-16T05:09:22.020Z,198.02
2022-12-16T05:12:08.142Z,122.65
2022-12-16T05:14:53.850Z,190.38
2022-12-16T05:17:40.276Z,94.68
2022-12-16T05:20:26.317Z,200.70
2022-12-16T05:23:15.395Z,232.32
2022-12-16T05:26:01.008Z,193.90
2022-12-16T05:28:46.586Z,218.40
2022-12-16T05:31:36.183Z,122.65
2022-12-16T05:34:21.888Z,170.82
2022-12-16T05:37:07.360Z,144.05
2022-12-16T05:39:53.980Z,31.08
2022-12-16T05:42:39.743Z,183.23
2022-12-16T05:45:25.176Z,167.15
2022-12-16T05:48:10.707Z,162.18
2022-12-16T05:51:04.341Z,70.03
2022-12-16T05:53:49.985Z,100.03
2022-12-16T05:56:35.623Z,80.55
2022-12-16T05:59:21.246Z,72.22
2022-12-16T06:02:06.921Z,101.65
2022-12-16T06:04:52.615Z,139.55
2022-12-16T06:07:38.247Z,187.27
2022-12-16T06:10:23.711Z,76.03
2022-12-16T06:13:09.383Z,261.50
2022-12-16T06:15:55.001Z,187.35
2022-12-16T06:18:40.449Z,208.77
2022-12-16T06:21:26.183Z,157.12
2022-12-16T06:24:11.684Z,162.37
2022-12-16T06:26:57.346Z,188.25
2022-12-16T06:29:42.870Z,74.15
2022-12-16T06:32:28.468Z,186.62
2022-12-16T06:35:14.180Z,178.73
2022-12-16T06:37:59.670Z,143.82
2022-12-16T06:40:45.286Z,162.00
2022-12-16T06:43:31.104Z,186.02
2022-12-16T06:46:17.076Z,121.65
2022-12-16T06:49:02.653Z,192.77
2022-12-16T06:51:48.107Z,194.82
2022-12-16T06:54:33.827Z,214.55
2022-12-16T06:57:19.341Z,80.68
2022-12-16T07:00:04.787Z,277.45
2022-12-16T07:02:50.761Z,272.33
2022-12-16T07:05:36.083Z,91.10
2022-12-16T07:08:21.797Z,100.38
2022-12-16T07:11:16.011Z,229.38
2022-12-16T07:14:02.461Z,84.87
2022-12-16T07:16:47.993Z,148.85
2022-12-16T07:19:33.655Z,138.57
2022-12-16T07:22:19.271Z,144.02
2022-12-16T07:25:05.551Z,149.10
2022-12-16T07:27:50.795Z,197.45
2022-12-16T07:30:36.520Z,159.48
2022-12-16T07:33:23.449Z,247.23
2022-12-16T07:36:11.647Z,358.70
2022-12-16T07:39:03.756Z,306.52
2022-12-16T07:41:49.179Z,214.32
2022-12-16T07:44:34.822Z,248.38
2022-12-16T07:47:20.558Z,202.95
2022-12-16T07:50:06.075Z,95.35
2022-12-16T07:52:51.885Z,164.32
2022-12-16T07:55:37.581Z,153.95
2022-12-16T07:58:23.152Z,208.07
2022-12-16T08:01:09.801Z,94.18
2022-12-16T08:03:55.917Z,190.90
2022-12-16T08:06:41.604Z,194.18
2022-12-16T08:09:27.193Z,267.50
2022-12-16T08:12:12.963Z,171.35
2022-12-16T08:14:58.585Z,157.85
2022-12-16T08:17:44.140Z,212.48
2022-12-16T08:20:29.960Z,154.90
2022-12-16T08:23:15.680Z,113.03
2022-12-16T08:26:01.254Z,116.75
2022-12-16T08:28:46.872Z,97.30
2022-12-16T08:31:39.928Z,47.47
2022-12-16T08:34:25.489Z,107.40
2022-12-16T08:37:11.295Z,93.62
2022-12-16T08:40:25.762Z,147.62
2022-12-16T08:43:07.863Z,127.60
2022-12-16T08:45:56.775Z,177.90
2022-12-16T08:48:42.416Z,140.25
2022-12-16T08:51:27.972Z,65.97
2022-12-16T08:54:13.472Z,101.72
2022-12-16T08:56:59.141Z,82.93
2022-12-16T08:59:44.935Z,55.88
2022-12-16T09:02:30.746Z,47.53
2022-12-16T09:05:16.863Z,47.67
2022-12-16T09:08:02.488Z,80.53
2022-12-16T09:10:48.054Z,86.28
2022-12-16T09:13:35.018Z,80.72
2022-12-16T09:16:21.241Z,88.62
2022-12-16T09:19:06.914Z,69.50
2022-12-16T09:21:52.912Z,71.80
2022-12-16T09:24:40.094Z,92.20
2022-12-16T09:27:25.556Z,60.05
2022-12-16T09:30:10.862Z,87.55
2022-12-16T09:33:00.810Z,94.75
2022-12-16T09:35:46.372Z,83.60
2022-12-16T09:38:31.955Z,59.25
2022-12-16T09:41:26.731Z,97.97
2022-12-16T09:44:28.112Z,72.75
2022-12-16T09:47:26.873Z,78.72
2022-12-16T09:53:58.229Z,80.15
2022-12-16T09:56:52.357Z,93.00
2022-12-16T09:59:47.416Z,75.75
2022-12-16T10:02:34.779Z,63.90
2022-12-16T10:05:20.914Z,48.80
2022-12-16T10:08:38.994Z,44.65
2022-12-16T10:11:32.510Z,67.32
2022-12-16T10:14:24.323Z,53.15
2022-12-16T10:17:31.836Z,41.47
2022-12-16T10:20:55.164Z,73.45
2022-12-16T10:24:07.100Z,74.03
2022-12-16T10:27:04.748Z,70.12
2022-12-16T10:29:51.940Z,98.87
2022-12-16T10:32:51.223Z,94.35
2022-12-16T10:35:47.891Z,67.62
2022-12-16T10:38:47.882Z,33.60
2022-12-16T10:41:33.886Z,38.10
2022-12-16T10:44:19.449Z,29.30
2022-12-16T10:47:05.273Z,30.00
2022-12-16T10:49:55.046Z,31.02
2022-12-16T10:52:40.431Z,25.75
2022-12-16T10:55:44.466Z,18.85
2022-12-16T10:58:35.925Z,21.67
2022-12-16T11:01:40.111Z,19.23
2022-12-16T11:04:49.399Z,19.55
2022-12-16T11:08:03.912Z,22.83
2022-12-16T11:10:51.935Z,24.25
2022-12-16T11:13:44.283Z,27.70
2022-12-16T11:16:39.737Z,19.92
2022-12-16T11:19:39.555Z,22.30
2022-12-16T11:22:38.082Z,20.12
2022-12-16T11:28:23.732Z,15.60
2022-12-16T11:31:14.435Z,19.20
2022-12-16T11:34:01.324Z,16.35
2022-12-16T11:36:46.748Z,17.02
2022-12-16T11:39:37.483Z,18.12
2022-12-16T11:42:24.073Z,18.23
2022-12-16T11:45:14.903Z,15.15
2022-12-16T11:48:13.498Z,14.75
2022-12-16T11:51:06.227Z,15.60
2022-12-16T11:53:57.019Z,13.98
2022-12-16T11:56:45.313Z,15.25
2022-12-16T12:00:06.316Z,12.50
2022-12-16T12:03:13.793Z,13.95
2022-12-16T12:06:17.436Z,13.95
2022-12-16T12:09:24.092Z,13.62
2022-12-16T12:12:35.741Z,14.80
2022-12-16T12:15:34.269Z,13.93
2022-12-16T12:21:37.332Z,14.73
2022-12-16T12:24:31.521Z,14.90
2022-12-16T12:27:31.944Z,13.55
2022-12-16T12:30:25.440Z,11.80
2022-12-16T12:33:38.885Z,24.45
2022-12-16T12:36:52.467Z,19.67
2022-12-16T12:40:03.841Z,15.10
2022-12-16T12:43:08.599Z,14.57
2022-12-16T12:46:02.260Z,14.95
2022-12-16T12:48:59.712Z,16.15
2022-12-16T12:51:49.618Z,17.20
2022-12-16T12:54:40.814Z,16.70
2022-12-16T12:57:27.946Z,14.40
2022-12-16T13:00:34.331Z,16.90
2022-12-16T13:03:38.117Z,15.90
2022-12-16T13:06:24.877Z,18.20
2022-12-16T13:09:10.444Z,15.93
2022-12-16T13:11:56.531Z,15.70
2022-12-16T13:14:51.404Z,14.35
2022-12-16T13:17:40.643Z,16.17
2022-12-16T13:20:57.149Z,20.00
2022-12-16T13:23:57.768Z,15.35
2022-12-16T13:26:48.329Z,15.52
2022-12-16T13:29:42.508Z,15.27
2022-12-16T13:32:30.798Z,15.68
2022-12-16T13:35:19.661Z,16.37
2022-12-16T13:38:21.969Z,16.30
2022-12-16T13:41:13.368Z,15.75
2022-12-16T13:44:28.949Z,14.35
2022-12-16T13:47:15.030Z,16.05
2022-12-16T13:50:12.630Z,15.07
2022-12-16T13:53:13.679Z,13.73
2022-12-16T13:56:19.363Z,14.70
2022-12-16T13:59:07.891Z,14.50
2022-12-16T14:02:15.664Z,16.48
2022-12-16T14:05:10.786Z,13.40
2022-12-16T14:07:59.750Z,13.93
2022-12-16T14:10:50.651Z,15.07
2022-12-16T14:13:55.040Z,14.48
2022-12-16T14:16:43.372Z,14.95
2022-12-16T14:19:34.611Z,18.12
2022-12-16T14:22:35.297Z,14.87
2022-12-16T14:25:33.448Z,13.77
2022-12-16T14:28:19.186Z,13.45
2022-12-16T14:31:04.638Z,13.85
2022-12-16T14:33:50.192Z,13.93
2022-12-16T14:36:40.903Z,15.55
2022-12-16T14:39:39.679Z,12.80
2022-12-16T14:42:39.059Z,12.82
2022-12-16T14:45:34.893Z,14.45
2022-12-16T14:48:22.923Z,14.25
2022-12-16T14:51:27.972Z,13.25
2022-12-16T14:54:13.334Z,13.50
2022-12-16T14:56:58.670Z,13.73
2022-12-16T14:59:44.217Z,14.32
2022-12-16T15:02:49.206Z,15.30
2022-12-16T15:05:34.673Z,12.63
2022-12-16T15:08:20.016Z,13.27
2022-12-16T15:11:26.050Z,13.68
2022-12-16T15:14:14.046Z,12.63
2022-12-16T15:19:44.831Z,13.07
2022-12-16T15:22:33.932Z,12.52
2022-12-16T15:25:19.793Z,11.23
2022-12-16T15:28:15.478Z,12.60
2022-12-16T15:31:04.057Z,10.00
2022-12-16T15:33:55.277Z,11.40
2022-12-16T15:36:47.162Z,9.23
2022-12-16T15:39:53.435Z,9.65
2022-12-16T15:42:39.076Z,12.27
2022-12-16T15:45:34.196Z,12.27
2022-12-16T15:48:46.209Z,11.98
2022-12-16T15:51:49.635Z,10.80
2022-12-16T15:54:40.241Z,11.63
2022-12-16T15:57:45.289Z,10.63
2022-12-16T16:00:57.185Z,11.50
2022-12-16T16:03:45.422Z,11.35
2022-12-16T16:06:43.582Z,10.73
2022-12-16T16:09:43.879Z,10.93
2022-12-16T16:12:34.030Z,10.23
2022-12-16T16:15:19.553Z,10.82
2022-12-16T16:18:07.583Z,12.55
2022-12-16T16:20:52.920Z,11.00
2022-12-16T16:23:38.458Z,12.25
2022-12-16T16:26:24.100Z,11.70
2022-12-16T16:29:09.595Z,10.95
2022-12-16T16:31:58.195Z,12.37
2022-12-16T16:34:46.189Z,11.45
2022-12-16T16:37:36.859Z,11.40
2022-12-16T16:40:49.319Z,11.80
2022-12-16T16:43:35.365Z,11.80
2022-12-16T16:46:21.527Z,11.57
2022-12-16T16:49:07.107Z,13.60
2022-12-16T16:51:52.672Z,14.32
2022-12-16T16:54:38.113Z,13.65
2022-12-16T16:57:23.569Z,13.25
2022-12-16T17:00:08.717Z,13.80
2022-12-16T17:02:54.520Z,15.90
2022-12-16T17:05:40.108Z,16.08
2022-12-16T17:08:25.573Z,14.63
2022-12-16T17:11:11.186Z,16.02
2022-12-16T17:13:56.395Z,19.23
2022-12-16T17:16:42.039Z,18.25
2022-12-16T17:19:27.309Z,18.52
2022-12-16T17:22:12.599Z,17.25
2022-12-16T17:24:58.087Z,21.10
2022-12-16T17:27:44.607Z,20.15
2022-12-16T17:30:35.237Z,22.27
2022-12-16T17:33:20.829Z,19.62
2022-12-16T17:36:10.534Z,21.98
2022-12-16T17:39:01.808Z,23.42
2022-12-16T17:41:49.085Z,21.92
2022-12-16T17:44:34.245Z,21.70
2022-12-16T17:47:19.667Z,25.75
2022-12-16T17:50:05.116Z,24.20
2022-12-16T17:52:50.694Z,25.73
2022-12-16T17:55:36.063Z,24.60
2022-12-16T17:58:21.314Z,25.95
2022-12-16T18:01:07.011Z,25.58
2022-12-16T18:03:52.512Z,31.87
2022-12-16T18:06:39.091Z,23.10
2022-12-16T18:09:24.604Z,26.17
2022-12-16T18:12:10.025Z,27.20
2022-12-16T18:14:55.658Z,26.42
2022-12-16T18:17:41.137Z,28.60
2022-12-16T18:20:26.860Z,26.77
2022-12-16T18:23:12.983Z,29.12
2022-12-16T18:25:58.525Z,26.55
2022-12-16T18:28:44.156Z,29.20
2022-12-16T18:31:29.696Z,29.58
2022-12-16T18:34:15.312Z,32.08
2022-12-16T18:37:00.981Z,30.95
2022-12-16T18:39:46.160Z,34.00
2022-12-16T18:42:31.943Z,32.63
2022-12-16T18:45:17.516Z,34.45
2022-12-16T18:48:03.184Z,37.72
2022-12-16T18:50:48.533Z,36.88
2022-12-16T18:53:34.206Z,30.05
2022-12-16T18:56:21.761Z,36.92
2022-12-16T18:59:07.229Z,34.80
2022-12-16T19:01:52.940Z,37.90
2022-12-16T19:04:38.695Z,36.40
2022-12-16T19:07:24.188Z,37.28
2022-12-16T19:10:09.778Z,32.95
2022-12-16T19:12:55.235Z,44.60
2022-12-16T19:15:41.723Z,43.35
2022-12-16T19:18:27.634Z,40.90
2022-12-16T19:21:16.242Z,44.42
2022-12-16T19:24:01.929Z,45.35
2022-12-16T19:26:47.314Z,42.08
2022-12-16T19:29:32.819Z,47.17
2022-12-16T19:32:18.472Z,46.45
2022-12-16T19:35:03.932Z,45.25
2022-12-16T19:37:49.560Z,48.10
2022-12-16T19:40:35.424Z,43.92
2022-12-16T19:43:20.882Z,48.40
2022-12-16T19:46:13.117Z,50.17
2022-12-16T19:48:59.385Z,49.80
2022-12-16T19:51:44.992Z,47.28
2022-12-16T19:54:30.446Z,45.65
2022-12-16T19:57:16.038Z,44.95
2022-12-16T20:00:01.641Z,42.72
2022-12-16T20:02:47.666Z,49.42
2022-12-16T20:05:33.673Z,46.22
2022-12-16T20:08:19.163Z,46.50
2022-12-16T20:11:04.884Z,42.85
2022-12-16T20:13:50.532Z,38.55
2022-12-16T20:16:37.267Z,48.50
2022-12-16T20:19:22.978Z,52.90
2022-12-16T20:22:11.870Z,46.47
2022-12-16T20:24:58.492Z,44.13
2022-12-16T20:27:44.303Z,40.67
2022-12-16T20:30:30.472Z,42.78
2022-12-16T20:33:16.166Z,45.30
2022-12-16T20:36:01.653Z,48.08
2022-12-16T20:38:47.212Z,40.88
2022-12-16T20:41:33.020Z,48.45
2022-12-16T20:44:18.586Z,43.08
2022-12-16T20:47:04.027Z,49.22
2022-12-16T20:49:49.562Z,42.78
2022-12-16T20:52:35.115Z,43.00
2022-12-16T20:55:20.655Z,47.58
2022-12-16T20:58:06.032Z,41.47
2022-12-16T21:00:51.659Z,40.15
2022-12-16T21:03:37.399Z,41.22
2022-12-16T21:06:24.503Z,39.72
2022-12-16T21:09:09.946Z,36.03
2022-12-16T21:12:15.319Z,37.22
2022-12-16T21:15:00.441Z,40.83
2022-12-16T21:17:45.873Z,43.67
2022-12-16T21:20:31.478Z,39.22
2022-12-16T21:23:31.746Z,35.08
2022-12-16T21:26:19.840Z,39.53
2022-12-16T21:29:05.980Z,40.67
2022-12-16T21:31:51.635Z,38.92
2022-12-16T21:34:39.298Z,39.75
2022-12-16T21:37:24.718Z,43.63
2022-12-16T21:40:10.358Z,39.88
2022-12-16T21:42:56.304Z,44.22
2022-12-16T21:45:42.026Z,42.65
2022-12-16T21:48:30.187Z,47.55
2022-12-16T21:51:15.761Z,39.35
2022-12-16T21:54:04.897Z,42.40
2022-12-16T21:56:53.243Z,44.05
2022-12-16T21:59:42.045Z,48.45
2022-12-16T22:02:31.206Z,43.63
2022-12-16T22:05:16.695Z,40.65
2022-12-16T22:08:02.489Z,46.20
2022-12-16T22:10:47.871Z,41.30
2022-12-16T22:13:33.471Z,45.88
2022-12-16T22:16:19.012Z,44.65
2022-12-16T22:19:04.492Z,42.42
2022-12-16T22:21:50.163Z,39.92
2022-12-16T22:24:35.698Z,39.17
2022-12-16T22:27:21.320Z,35.28
2022-12-16T22:30:06.936Z,40.33
2022-12-16T22:32:52.522Z,43.33
2022-12-16T22:35:41.991Z,37.20
2022-12-16T22:38:27.431Z,34.42
2022-12-16T22:41:14.529Z,45.35
2022-12-16T22:44:00.238Z,39.83
2022-12-16T22:46:45.919Z,44.20
2022-12-16T22:49:31.908Z,46.17
2022-12-16T22:52:17.715Z,41.88
2022-12-16T22:55:03.245Z,39.70
2022-12-16T22:57:50.842Z,36.25
2022-12-16T23:00:37.437Z,34.53
2022-12-16T23:03:22.968Z,46.53
2022-12-16T23:06:08.632Z,35.15
2022-12-16T23:08:55.235Z,43.30
2022-12-16T23:11:45.313Z,42.05
2022-12-16T23:14:30.684Z,40.15
2022-12-16T23:17:16.276Z,42.10
2022-12-16T23:20:01.760Z,41.78
2022-12-16T23:22:47.374Z,34.72
2022-12-16T23:25:32.839Z,41.92
2022-12-16T23:28:18.089Z,40.35
2022-12-16T23:31:03.655Z,40.92
2022-12-16T23:33:48.985Z,37.35
2022-12-16T23:36:34.643Z,27.45
2022-12-16T23:39:20.221Z,36.97
2022-12-16T23:42:05.881Z,35.25
2022-12-16T23:44:55.321Z,40.50
2022-12-16T23:47:41.924Z,40.53
2022-12-16T23:50:27.598Z,39.20
2022-12-16T23:53:28.400Z,40.83
2022-12-16T23:56:14.906Z,34.30
2022-12-16T23:59:00.376Z,37.20
